Time;durP1;ratioP1;P1;durP2;ratioP2;P2;SDS_P1;SDS_P2;PMS_P1;PMS_P2;Temp;Humidity;BMP_temperature;BMP_pressure;BME280_temperature;BME280_humidity;BME280_pressure;Samples;Min_cycle;Max_cycle;Signal;HPM_P1;HPM_P2
2021/09/21 00:02:22;;;;;;;10.52;6.85;;;14.00;99.90;;;;;;5017513;28;20131;-87
2021/09/21 00:04:48;;;;;;;9.45;6.50;;;14.00;99.90;;;;;;5017288;28;20448;-87
2021/09/21 00:07:14;;;;;;;11.60;7.47;;;13.90;99.90;;;;;;5017404;28;20029;-87
2021/09/21 00:09:40;;;;;;;10.75;7.10;;;14.00;99.90;;;;;;5017604;28;20055;-87
2021/09/21 00:12:06;;;;;;;8.60;6.20;;;14.00;99.90;;;;;;5034692;28;20378;-87
2021/09/21 00:14:32;;;;;;;11.15;6.72;;;14.00;99.90;;;;;;5017200;28;20025;-87
2021/09/21 00:17:02;;;;;;;9.00;7.68;;;14.00;99.90;;;;;;5017179;28;20029;-88
2021/09/21 00:19:31;;;;;;;12.65;7.70;;;13.90;99.90;;;;;;5034931;28;20028;-86
2021/09/21 00:21:58;;;;;;;12.82;7.50;;;13.90;99.90;;;;;;5034814;28;20032;-88
2021/09/21 00:24:24;;;;;;;8.80;6.28;;;13.90;99.90;;;;;;5034647;28;20481;-87
2021/09/21 00:26:49;;;;;;;13.40;7.18;;;14.20;99.90;;;;;;5016928;28;20078;-87
2021/09/21 00:29:15;;;;;;;9.52;5.88;;;14.10;99.90;;;;;;5016959;28;20112;-86
2021/09/21 00:31:41;;;;;;;8.52;6.50;;;14.10;99.90;;;;;;5034940;28;20020;-87
2021/09/21 00:34:12;;;;;;;7.30;6.43;;;14.20;99.90;;;;;;5034864;28;20493;-87
2021/09/21 00:36:40;;;;;;;8.10;6.53;;;14.00;99.90;;;;;;5016803;28;20026;-88
2021/09/21 00:39:11;;;;;;;9.20;7.72;;;14.00;99.90;;;;;;5034496;28;20017;-88
2021/09/21 00:41:39;;;;;;;15.32;7.15;;;13.90;99.90;;;;;;5034619;28;20100;-87
2021/09/21 00:44:06;;;;;;;9.32;7.22;;;13.80;99.90;;;;;;5016639;28;20030;-87
2021/09/21 00:46:32;;;;;;;9.57;7.10;;;13.60;99.90;;;;;;5018849;28;20025;-87
2021/09/21 00:48:58;;;;;;;11.73;7.43;;;13.80;99.90;;;;;;5020535;28;20474;-87
2021/09/21 00:51:24;;;;;;;10.10;6.72;;;14.00;99.90;;;;;;5018128;28;20026;-87
2021/09/21 00:53:51;;;;;;;11.18;7.05;;;14.00;99.90;;;;;;5016771;28;20024;-87
2021/09/21 00:56:17;;;;;;;6.78;6.07;;;14.10;99.90;;;;;;5042268;28;20381;-88
2021/09/21 00:58:42;;;;;;;10.82;7.03;;;14.20;99.90;;;;;;5052810;28;20036;-87
2021/09/21 01:01:08;;;;;;;8.27;6.50;;;14.00;99.90;;;;;;5052743;28;20029;-88
2021/09/21 01:03:34;;;;;;;9.00;6.82;;;13.90;99.90;;;;;;5052667;28;20052;-87
2021/09/21 01:06:00;;;;;;;9.18;7.38;;;13.90;99.90;;;;;;5052515;28;20041;-87
2021/09/21 01:08:29;;;;;;;9.68;7.20;;;13.80;99.90;;;;;;5053848;28;20035;-87
2021/09/21 01:10:56;;;;;;;8.07;7.03;;;13.70;99.90;;;;;;5052561;28;20017;-86
2021/09/21 01:13:22;;;;;;;10.63;7.00;;;13.90;99.90;;;;;;5052447;28;20025;-88
2021/09/21 01:15:49;;;;;;;9.65;7.65;;;14.10;99.90;;;;;;5052504;28;20366;-87
2021/09/21 01:18:15;;;;;;;8.90;7.43;;;14.10;99.90;;;;;;5052448;28;20021;-88
2021/09/21 01:20:41;;;;;;;9.10;7.35;;;14.00;99.90;;;;;;5052435;28;20028;-88
2021/09/21 01:23:07;;;;;;;9.18;6.88;;;13.80;99.90;;;;;;5053062;28;20025;-87
2021/09/21 01:25:33;;;;;;;10.15;6.88;;;14.00;99.90;;;;;;5052376;28;20416;-87
2021/09/21 01:27:59;;;;;;;9.57;6.88;;;14.10;99.90;;;;;;5052273;28;20154;-87
2021/09/21 01:30:25;;;;;;;10.00;6.68;;;14.10;99.90;;;;;;5052317;28;20059;-87
2021/09/21 01:32:51;;;;;;;7.55;6.47;;;14.10;99.90;;;;;;5053491;28;20111;-87
2021/09/21 01:35:16;;;;;;;14.77;6.88;;;14.00;99.90;;;;;;5053472;28;20025;-87
2021/09/21 01:37:48;;;;;;;11.10;7.30;;;14.10;99.90;;;;;;5053342;28;20033;-87
2021/09/21 01:40:14;;;;;;;9.23;6.30;;;14.00;99.90;;;;;;5052139;28;20032;-87
2021/09/21 01:42:45;;;;;;;9.40;6.75;;;14.00;99.90;;;;;;5052103;28;20029;-88
2021/09/21 01:45:12;;;;;;;10.45;7.68;;;13.90;99.90;;;;;;5051908;28;20439;-87
2021/09/21 01:47:38;;;;;;;8.60;7.25;;;13.90;99.90;;;;;;5051951;28;20076;-87
2021/09/21 01:53:05;;;;;;;8.68;7.00;;;13.80;99.90;;;;;;5053272;28;20025;-87
2021/09/21 02:00:54;;;;;;;7.57;5.68;;;13.90;99.90;;;;;;5053679;28;20044;-87
2021/09/21 02:03:19;;;;;;;8.45;5.88;;;14.00;99.90;;;;;;5051813;28;20024;-88
2021/09/21 02:05:46;;;;;;;10.68;7.28;;;14.30;99.90;;;;;;5051780;28;20064;-87
2021/09/21 02:08:12;;;;;;;8.00;6.70;;;14.30;99.90;;;;;;5053320;28;20017;-87
2021/09/21 02:10:38;;;;;;;9.63;7.18;;;14.20;99.90;;;;;;5051749;28;20039;-87
2021/09/21 02:13:03;;;;;;;8.30;6.90;;;14.20;99.90;;;;;;5051712;28;20052;-87
2021/09/21 02:15:31;;;;;;;10.00;7.32;;;14.10;99.90;;;;;;5051654;28;20040;-87
2021/09/21 02:17:59;;;;;;;9.07;7.60;;;13.90;99.90;;;;;;5051615;28;20047;-88
2021/09/21 02:20:28;;;;;;;13.93;7.97;;;14.00;99.90;;;;;;5051699;28;20470;-88
2021/09/21 02:22:54;;;;;;;10.13;7.43;;;14.00;99.90;;;;;;5051561;28;20032;-87
2021/09/21 02:25:20;;;;;;;10.15;6.50;;;14.10;99.90;;;;;;5052784;28;20029;-87
2021/09/21 02:27:47;;;;;;;10.43;6.95;;;14.10;99.90;;;;;;5051899;28;20029;-87
2021/09/21 02:30:13;;;;;;;10.10;5.65;;;14.00;99.90;;;;;;5051502;28;20370;-87
2021/09/21 02:32:39;;;;;;;13.15;7.70;;;14.10;99.90;;;;;;5051522;28;20590;-87
2021/09/21 02:35:06;;;;;;;11.23;7.38;;;14.40;99.90;;;;;;5054313;28;20025;-87
2021/09/21 02:37:32;;;;;;;8.23;6.18;;;14.50;99.90;;;;;;5056659;28;20094;-87
2021/09/21 02:39:58;;;;;;;11.52;7.80;;;14.60;99.90;;;;;;5055432;28;20424;-88
2021/09/21 02:42:23;;;;;;;9.40;7.75;;;14.50;99.90;;;;;;5055391;28;20052;-87
2021/09/21 02:44:49;;;;;;;12.35;7.57;;;14.40;99.90;;;;;;5055270;28;20032;-87
2021/09/21 02:47:15;;;;;;;12.07;8.52;;;14.40;99.90;;;;;;5056554;28;20422;-87
2021/09/21 02:49:40;;;;;;;14.40;8.10;;;14.60;99.90;;;;;;5055214;28;20025;-87
2021/09/21 02:52:06;;;;;;;14.00;7.45;;;14.30;99.90;;;;;;5055266;28;20393;-87
2021/09/21 02:54:32;;;;;;;9.63;7.57;;;14.20;99.90;;;;;;5054927;28;20031;-87
2021/09/21 02:56:58;;;;;;;7.57;6.75;;;14.40;99.90;;;;;;5019465;28;20508;-87
2021/09/21 02:59:23;;;;;;;9.35;7.75;;;14.40;99.90;;;;;;5023395;28;20040;-87
2021/09/21 03:01:50;;;;;;;8.13;6.93;;;14.30;99.90;;;;;;5021383;28;20029;-87
2021/09/21 03:04:22;;;;;;;8.75;7.43;;;14.30;99.90;;;;;;5018873;28;20029;-88
2021/09/21 03:06:51;;;;;;;13.63;7.82;;;14.30;99.90;;;;;;5018767;28;20025;-87
2021/09/21 03:09:34;;;;;;;8.82;7.10;;;14.30;99.90;;;;;;5018545;28;20388;-87
2021/09/21 03:17:27;;;;;;;;;;;14.30;99.90;;;;;;5036531;28;20036;-87
2021/09/21 03:19:59;;;;;;;13.25;7.68;;;14.20;99.90;;;;;;5018278;28;19944;-87
2021/09/21 03:22:26;;;;;;;13.13;8.48;;;14.20;99.90;;;;;;5018213;28;20033;-87
2021/09/21 03:24:52;;;;;;;14.27;7.65;;;14.10;99.90;;;;;;5018946;28;20117;-87
2021/09/21 03:27:19;;;;;;;9.48;7.72;;;14.10;99.90;;;;;;5018134;28;20021;-88
2021/09/21 03:29:45;;;;;;;8.48;7.18;;;14.30;99.90;;;;;;5018040;28;20028;-87
2021/09/21 03:32:11;;;;;;;9.18;7.28;;;14.20;99.90;;;;;;5018144;28;20025;-87
2021/09/21 03:34:38;;;;;;;10.10;7.80;;;14.30;99.90;;;;;;5017959;28;20116;-86
2021/09/21 03:37:08;;;;;;;9.30;6.75;;;14.30;99.90;;;;;;5017869;28;20037;-87
2021/09/21 03:39:35;;;;;;;6.60;5.95;;;14.20;99.90;;;;;;5035627;28;20059;-87
2021/09/21 03:42:02;;;;;;;13.68;7.60;;;14.40;99.90;;;;;;5035641;28;20542;-86
2021/09/21 03:44:27;;;;;;;9.65;7.30;;;14.30;99.90;;;;;;5035487;28;20026;-87
2021/09/21 03:46:54;;;;;;;11.65;8.02;;;14.10;99.90;;;;;;5017142;28;20040;-88
2021/09/21 03:49:22;;;;;;;11.23;7.90;;;14.20;99.90;;;;;;5017639;28;20056;-87
2021/09/21 03:51:48;;;;;;;8.75;7.53;;;13.90;99.90;;;;;;5017628;28;20389;-86
2021/09/21 03:54:14;;;;;;;9.98;8.05;;;13.80;99.90;;;;;;5017623;28;20026;-87
2021/09/21 03:56:40;;;;;;;12.15;7.75;;;13.90;99.90;;;;;;5049573;28;20166;-87
2021/09/21 03:59:07;;;;;;;14.65;8.30;;;13.90;99.90;;;;;;5053970;28;20021;-87
2021/09/21 04:01:34;;;;;;;10.82;8.52;;;13.90;99.90;;;;;;5053886;28;20025;-87
2021/09/21 04:04:00;;;;;;;9.70;7.28;;;14.00;99.90;;;;;;5053721;28;20083;-87
2021/09/21 04:06:26;;;;;;;8.38;7.20;;;14.00;99.90;;;;;;5055030;28;20031;-87
2021/09/21 04:08:53;;;;;;;13.95;8.02;;;14.10;99.90;;;;;;5055097;28;20029;-87
2021/09/21 04:11:20;;;;;;;10.52;7.75;;;14.10;99.90;;;;;;5053741;28;20029;-87
2021/09/21 04:13:46;;;;;;;11.30;8.20;;;14.00;99.90;;;;;;5053679;28;20521;-87
2021/09/21 04:16:12;;;;;;;8.98;7.82;;;13.90;99.90;;;;;;5054709;28;20353;-87
2021/09/21 04:18:38;;;;;;;10.70;7.45;;;13.90;99.90;;;;;;5053544;28;20025;-87
2021/09/21 04:21:04;;;;;;;8.32;6.38;;;13.80;99.90;;;;;;5053583;28;20032;-87
2021/09/21 04:23:30;;;;;;;8.45;6.78;;;13.90;99.90;;;;;;5053455;28;20063;-87
2021/09/21 04:25:56;;;;;;;10.80;7.10;;;14.00;99.90;;;;;;5054760;28;20083;-87
2021/09/21 04:28:22;;;;;;;11.77;7.65;;;14.00;99.90;;;;;;5053340;28;20087;-87
2021/09/21 04:30:52;;;;;;;10.25;7.90;;;14.00;99.90;;;;;;5053651;28;20021;-86
2021/09/21 04:33:19;;;;;;;10.85;7.13;;;14.00;99.90;;;;;;5053399;28;20489;-87
2021/09/21 04:35:46;;;;;;;9.80;7.70;;;14.10;99.90;;;;;;5053202;28;20074;-87
2021/09/21 04:38:12;;;;;;;8.90;6.68;;;14.00;99.90;;;;;;5053395;28;20087;-87
2021/09/21 04:40:38;;;;;;;14.63;8.52;;;13.90;99.90;;;;;;5053186;28;20025;-87
2021/09/21 04:43:04;;;;;;;7.70;6.03;;;13.80;99.90;;;;;;5053059;28;20025;-87
2021/09/21 04:45:31;;;;;;;7.03;6.00;;;14.00;99.90;;;;;;5054517;28;20075;-87
2021/09/21 04:47:57;;;;;;;8.55;7.68;;;14.20;99.90;;;;;;5053025;28;20029;-87
2021/09/21 04:50:23;;;;;;;8.65;6.72;;;14.10;99.90;;;;;;5052962;28;20021;-87
2021/09/21 04:52:48;;;;;;;8.35;7.55;;;14.10;99.90;;;;;;5054280;28;20037;-87
2021/09/21 04:55:14;;;;;;;12.07;7.43;;;14.10;99.90;;;;;;5052633;28;20041;-86
2021/09/21 04:57:40;;;;;;;9.55;7.68;;;14.10;99.90;;;;;;5051863;28;20043;-87
2021/09/21 05:00:08;;;;;;;10.35;7.80;;;14.10;99.90;;;;;;5054364;28;20036;-86
2021/09/21 05:02:34;;;;;;;9.77;7.32;;;14.00;99.90;;;;;;5052766;28;20025;-87
2021/09/21 05:05:00;;;;;;;11.07;8.23;;;14.00;99.90;;;;;;5052811;28;20079;-87
2021/09/21 05:07:26;;;;;;;10.07;7.68;;;13.90;99.90;;;;;;5053152;28;20181;-86
2021/09/21 05:09:52;;;;;;;9.65;7.78;;;13.90;99.90;;;;;;5055800;28;20023;-86
2021/09/21 05:12:17;;;;;;;7.95;6.78;;;13.70;99.90;;;;;;5056761;28;20028;-86
2021/09/21 05:14:43;;;;;;;10.43;8.48;;;13.70;99.90;;;;;;5055521;28;20036;-87
2021/09/21 05:17:09;;;;;;;9.27;7.05;;;13.80;99.90;;;;;;5052716;28;20024;-86
2021/09/21 05:19:35;;;;;;;10.38;7.82;;;13.90;99.90;;;;;;5053825;28;20029;-86
2021/09/21 05:22:01;;;;;;;8.38;7.43;;;13.90;99.90;;;;;;5052358;28;20029;-85
2021/09/21 05:24:26;;;;;;;9.20;7.25;;;14.00;99.90;;;;;;5052376;28;20040;-86
2021/09/21 05:26:52;;;;;;;9.48;7.28;;;13.90;99.90;;;;;;5053885;28;20456;-86
2021/09/21 05:29:18;;;;;;;8.93;7.90;;;13.80;99.90;;;;;;5052315;28;20442;-86
2021/09/21 05:31:44;;;;;;;8.25;7.35;;;13.80;99.90;;;;;;5052268;28;20500;-86
2021/09/21 05:34:10;;;;;;;11.52;7.70;;;13.90;99.90;;;;;;5052187;28;20484;-86
2021/09/21 05:36:35;;;;;;;9.57;7.30;;;13.80;99.90;;;;;;5052058;28;20032;-86
2021/09/21 05:39:01;;;;;;;12.77;7.15;;;13.70;99.90;;;;;;5052143;28;20025;-86
2021/09/21 05:41:27;;;;;;;10.77;7.32;;;13.80;99.90;;;;;;5052105;28;20020;-86
2021/09/21 05:43:52;;;;;;;9.73;6.40;;;13.70;99.90;;;;;;5053521;28;20021;-87
2021/09/21 05:46:18;;;;;;;8.75;6.75;;;13.60;99.90;;;;;;5052305;28;20079;-86
2021/09/21 05:48:44;;;;;;;8.50;6.70;;;13.70;99.90;;;;;;5053500;28;20021;-86
2021/09/21 05:51:09;;;;;;;7.88;7.07;;;13.70;99.90;;;;;;5052322;28;20113;-87
2021/09/21 05:53:35;;;;;;;11.32;6.47;;;13.80;99.90;;;;;;5051959;28;20031;-86
2021/09/21 05:56:01;;;;;;;11.52;6.60;;;13.60;99.90;;;;;;5040700;28;20409;-86
2021/09/21 05:58:27;;;;;;;7.68;6.60;;;13.50;99.90;;;;;;5015525;28;20021;-86
2021/09/21 06:00:52;;;;;;;6.68;5.80;;;13.50;99.90;;;;;;5033201;28;20116;-86
2021/09/21 06:03:18;;;;;;;9.95;6.95;;;13.70;99.90;;;;;;5033175;28;20048;-86
2021/09/21 06:05:44;;;;;;;10.82;6.50;;;13.70;99.90;;;;;;5015401;28;20485;-86
2021/09/21 06:08:09;;;;;;;10.35;6.47;;;13.70;99.90;;;;;;5015587;28;20477;-86
2021/09/21 06:10:35;;;;;;;9.65;6.50;;;13.80;99.90;;;;;;5039463;28;20547;-86
2021/09/21 06:13:01;;;;;;;7.47;6.20;;;13.90;99.90;;;;;;5021953;28;20112;-86
2021/09/21 06:15:27;;;;;;;13.32;7.05;;;13.90;99.90;;;;;;5021919;28;20029;-86
2021/09/21 06:17:53;;;;;;;10.70;7.47;;;13.90;99.90;;;;;;5021863;28;20021;-86
2021/09/21 06:20:19;;;;;;;7.28;5.80;;;14.00;99.90;;;;;;5039592;28;20036;-86
2021/09/21 06:22:46;;;;;;;9.98;5.97;;;14.00;99.90;;;;;;5021850;28;20520;-86
2021/09/21 06:25:13;;;;;;;6.38;5.75;;;14.30;99.90;;;;;;5039461;28;20079;-86
2021/09/21 06:27:39;;;;;;;8.10;6.50;;;14.60;99.90;;;;;;5021801;28;20026;-85
2021/09/21 06:30:08;;;;;;;10.70;6.35;;;14.80;99.90;;;;;;5021743;28;20143;-86
2021/09/21 06:32:34;;;;;;;7.75;6.40;;;14.70;99.90;;;;;;5021756;28;20021;-86
2021/09/21 06:35:00;;;;;;;8.00;6.38;;;14.50;99.90;;;;;;5021711;28;20514;-86
2021/09/21 06:37:25;;;;;;;9.82;6.57;;;14.50;99.90;;;;;;5021702;28;20060;-86
2021/09/21 06:39:51;;;;;;;8.57;6.25;;;14.90;99.90;;;;;;5021652;28;20025;-86
2021/09/21 06:42:17;;;;;;;7.25;6.35;;;14.80;99.90;;;;;;5021619;28;20025;-86
2021/09/21 06:44:43;;;;;;;10.52;6.40;;;14.70;99.90;;;;;;5021738;28;20029;-86
2021/09/21 06:47:09;;;;;;;9.38;6.47;;;14.70;99.90;;;;;;5021675;28;20052;-86
2021/09/21 06:49:35;;;;;;;7.38;6.60;;;14.60;99.90;;;;;;5021723;28;20075;-86
2021/09/21 06:52:00;;;;;;;9.70;6.60;;;14.50;99.90;;;;;;5021647;28;20017;-86
2021/09/21 06:54:26;;;;;;;8.02;5.70;;;14.40;99.90;;;;;;5021660;28;20034;-87
2021/09/21 06:56:52;;;;;;;8.32;6.00;;;14.60;99.90;;;;;;5057326;28;20503;-86
2021/09/21 06:59:18;;;;;;;11.60;6.78;;;14.50;99.90;;;;;;5058050;28;20111;-86
2021/09/21 07:01:43;;;;;;;7.85;6.15;;;14.40;99.90;;;;;;5057837;28;20027;-86
2021/09/21 07:04:09;;;;;;;16.30;6.05;;;14.40;99.90;;;;;;5059192;28;20454;-87
2021/09/21 07:06:35;;;;;;;7.35;5.80;;;14.50;99.90;;;;;;5059235;28;20029;-86
2021/09/21 07:09:01;;;;;;;9.73;6.47;;;14.60;99.90;;;;;;5058217;28;20052;-86
2021/09/21 07:11:27;;;;;;;10.50;6.00;;;14.60;99.90;;;;;;5057937;28;20048;-86
2021/09/21 07:13:53;;;;;;;9.48;5.90;;;14.80;99.90;;;;;;5057877;28;20021;-86
2021/09/21 07:16:19;;;;;;;7.40;6.22;;;15.00;99.90;;;;;;5059138;28;20036;-86
2021/09/21 07:18:45;;;;;;;8.48;5.97;;;15.00;99.90;;;;;;5058210;28;20021;-86
2021/09/21 07:21:11;;;;;;;7.50;5.50;;;14.90;99.90;;;;;;5056165;28;20021;-86
2021/09/21 07:23:36;;;;;;;9.60;5.78;;;14.90;99.90;;;;;;5054792;28;20527;-86
2021/09/21 07:26:03;;;;;;;10.40;6.18;;;15.10;99.90;;;;;;5060089;28;20021;-86
2021/09/21 07:28:29;;;;;;;10.43;5.53;;;15.00;99.90;;;;;;5065083;28;20377;-86
2021/09/21 07:30:54;;;;;;;10.13;6.47;;;14.90;99.90;;;;;;5056712;28;20028;-87
2021/09/21 07:33:20;;;;;;;8.65;5.72;;;14.90;99.90;;;;;;5056193;28;20495;-86
2021/09/21 07:35:46;;;;;;;12.50;6.68;;;14.80;99.90;;;;;;5056100;28;20052;-87
2021/09/21 07:38:12;;;;;;;8.40;6.68;;;14.70;99.90;;;;;;5054419;28;20029;-86
2021/09/21 07:40:38;;;;;;;10.20;6.47;;;14.70;99.90;;;;;;5055886;28;20380;-86
2021/09/21 07:43:05;;;;;;;7.72;5.60;;;14.80;99.90;;;;;;5054310;28;20477;-86
2021/09/21 07:45:35;;;;;;;7.35;6.15;;;14.90;99.90;;;;;;5055448;28;20070;-86
2021/09/21 07:48:02;;;;;;;8.00;7.10;;;14.90;99.90;;;;;;5055535;28;20040;-86
2021/09/21 07:50:28;;;;;;;11.20;6.97;;;14.80;99.90;;;;;;5054183;28;20119;-86
2021/09/21 07:52:54;;;;;;;7.78;6.20;;;15.00;99.90;;;;;;5055280;28;20477;-86
2021/09/21 07:55:20;;;;;;;13.75;6.65;;;15.10;99.90;;;;;;5048464;28;20509;-86
2021/09/21 07:57:46;;;;;;;7.60;6.22;;;15.00;99.90;;;;;;5017584;28;20030;-86
2021/09/21 08:00:15;;;;;;;9.45;6.78;;;15.30;99.90;;;;;;5017482;28;20045;-86
2021/09/21 08:02:41;;;;;;;11.43;6.13;;;15.40;99.90;;;;;;5017416;28;20033;-85
2021/09/21 08:05:07;;;;;;;6.95;6.10;;;15.40;99.90;;;;;;5035154;28;20026;-85
2021/09/21 08:07:33;;;;;;;13.88;6.00;;;15.80;99.90;;;;;;5017381;28;20167;-85
2021/09/21 08:10:00;;;;;;;12.93;6.30;;;16.10;99.90;;;;;;5017335;28;20465;-86
2021/09/21 08:12:27;;;;;;;14.07;7.28;;;16.20;99.90;;;;;;5035081;28;20075;-86
2021/09/21 08:14:53;;;;;;;8.75;6.03;;;16.20;99.90;;;;;;5017212;28;20440;-86
2021/09/21 08:17:22;;;;;;;16.90;5.78;;;16.40;99.90;;;;;;5017172;28;20025;-85
2021/09/21 08:19:49;;;;;;;8.48;5.65;;;16.60;99.90;;;;;;5034923;28;20025;-86
2021/09/21 08:22:15;;;;;;;7.30;5.15;;;16.80;99.90;;;;;;5017068;28;20067;-87
2021/09/21 08:24:41;;;;;;;10.63;6.53;;;16.80;99.90;;;;;;5017133;28;20029;-86
2021/09/21 08:27:06;;;;;;;6.78;5.72;;;16.90;99.90;;;;;;5017028;28;20052;-86
2021/09/21 08:29:32;;;;;;;9.82;5.82;;;16.90;99.90;;;;;;5017062;28;20025;-86
2021/09/21 08:31:57;;;;;;;11.98;5.68;;;16.70;99.90;;;;;;5016797;28;20398;-86
2021/09/21 08:34:23;;;;;;;10.88;5.40;;;16.40;99.90;;;;;;5016873;28;20031;-86
2021/09/21 08:36:51;;;;;;;8.88;5.63;;;16.60;99.90;;;;;;5034511;28;20025;-85
2021/09/21 08:39:17;;;;;;;8.65;6.18;;;16.90;99.90;;;;;;5034489;28;20017;-85
2021/09/21 08:41:43;;;;;;;14.32;5.78;;;17.10;99.90;;;;;;5016566;28;20512;-87
2021/09/21 08:44:10;;;;;;;11.50;5.75;;;17.20;99.90;;;;;;5016684;28;20053;-88
2021/09/21 08:46:36;;;;;;;6.60;5.22;;;17.30;99.90;;;;;;5016772;28;20480;-83
2021/09/21 08:49:02;;;;;;;8.32;5.28;;;17.50;99.90;;;;;;5016650;28;20021;-85
2021/09/21 08:51:28;;;;;;;7.53;5.35;;;17.50;99.90;;;;;;5016726;28;20048;-87
2021/09/21 08:53:54;;;;;;;8.15;5.07;;;17.40;99.90;;;;;;5016523;28;20018;-86
2021/09/21 08:56:21;;;;;;;9.23;5.03;;;17.10;99.90;;;;;;5042825;28;20060;-85
2021/09/21 08:59:00;;;;;;;7.32;4.95;;;17.20;99.90;;;;;;5052858;28;20480;-85
2021/09/21 09:01:36;;;;;;;8.27;5.22;;;17.40;99.90;;;;;;5054372;28;20021;-86
2021/09/21 09:04:03;;;;;;;5.78;4.75;;;17.40;99.90;;;;;;5052696;28;20484;-86
2021/09/21 09:06:29;;;;;;;6.40;4.80;;;17.60;99.90;;;;;;5052698;28;20017;-86
2021/09/21 09:08:54;;;;;;;6.13;5.05;;;17.60;99.90;;;;;;5053889;28;20059;-86
2021/09/21 09:11:28;;;;;;;5.68;4.70;;;17.70;99.90;;;;;;5053862;28;20017;-85
2021/09/21 09:13:57;;;;;;;5.57;4.82;;;17.90;99.90;;;;;;5052566;28;20053;-85
2021/09/21 09:16:26;;;;;;;6.57;5.10;;;18.00;99.90;;;;;;5052472;28;20029;-87
2021/09/21 09:19:07;;;;;;;8.25;4.90;;;18.20;99.90;;;;;;5052473;28;20116;-85
2021/09/21 09:21:38;;;;;;;8.48;5.03;;;18.20;99.90;;;;;;5052375;28;20039;-86
2021/09/21 09:24:05;;;;;;;6.30;4.75;;;18.20;99.90;;;;;;5053596;28;20025;-85
2021/09/21 09:26:35;;;;;;;6.97;5.50;;;18.00;99.90;;;;;;5053124;28;20044;-87
2021/09/21 09:29:01;;;;;;;7.72;5.03;;;17.80;99.90;;;;;;5052314;28;20028;-87
2021/09/21 09:31:32;;;;;;;10.73;5.10;;;17.80;99.90;;;;;;5052913;28;20477;-87
2021/09/21 09:34:08;;;;;;;8.38;4.93;;;18.00;99.90;;;;;;5053892;28;20025;-86
2021/09/21 09:36:57;;;;;;;9.88;5.20;;;18.20;99.90;;;;;;5053912;28;20021;-86
2021/09/21 09:39:26;;;;;;;5.72;4.88;;;18.10;99.90;;;;;;5064720;28;20033;-86
2021/09/21 09:41:53;;;;;;;7.38;5.47;;;18.10;99.90;;;;;;5065038;28;20064;-87
2021/09/21 09:44:26;;;;;;;8.95;5.88;;;18.30;99.90;;;;;;5053115;28;20025;-87
2021/09/21 09:47:04;;;;;;;6.68;4.88;;;18.50;99.90;;;;;;5052895;28;20025;-87
2021/09/21 09:49:45;;;;;;;8.82;4.30;;;18.40;99.90;;;;;;5052781;28;20025;-86
2021/09/21 09:52:15;;;;;;;9.45;5.22;;;18.60;99.90;;;;;;5053445;28;20029;-87
2021/09/21 09:54:42;;;;;;;6.22;4.38;;;18.30;99.90;;;;;;5050753;28;20021;-87
2021/09/21 09:57:10;;;;;;;6.00;4.70;;;18.50;99.90;;;;;;5015751;28;20393;-86
2021/09/21 09:59:37;;;;;;;7.88;5.03;;;18.20;99.90;;;;;;5033374;28;20029;-86
2021/09/21 10:02:03;;;;;;;8.48;5.50;;;18.00;99.90;;;;;;5015541;28;20026;-87
2021/09/21 10:04:29;;;;;;;9.75;5.80;;;17.90;99.90;;;;;;5015696;28;20036;-87
2021/09/21 10:06:56;;;;;;;9.85;5.70;;;17.80;99.90;;;;;;5015511;28;20477;-87
2021/09/21 10:09:22;;;;;;;7.18;5.13;;;18.30;99.90;;;;;;5033279;28;20021;-87
2021/09/21 10:11:51;;;;;;;7.68;4.20;;;19.00;99.90;;;;;;5015743;28;20041;-85
2021/09/21 10:14:19;;;;;;;7.53;4.63;;;19.70;99.90;;;;;;5015374;28;20025;-86
2021/09/21 10:16:59;;;;;;;7.97;4.53;;;20.10;99.90;;;;;;5033226;28;20049;-86
2021/09/21 10:19:26;;;;;;;6.57;5.30;;;20.40;99.90;;;;;;5015486;28;20034;-85
2021/09/21 10:21:54;;;;;;;10.30;4.38;;;20.10;99.90;;;;;;5015537;28;20026;-84
2021/09/21 10:24:37;;;;;;;12.40;5.30;;;20.40;99.90;;;;;;5033026;28;20095;-86
2021/09/21 10:27:06;;;;;;;11.38;5.13;;;20.70;99.90;;;;;;5015474;28;20037;-87
2021/09/21 10:29:32;;;;;;;7.13;4.75;;;20.90;99.90;;;;;;5015451;28;20022;-86
2021/09/21 10:31:58;;;;;;;4.78;4.28;;;21.10;99.90;;;;;;5015349;28;20029;-83
2021/09/21 10:34:25;;;;;;;5.93;4.07;;;21.20;99.90;;;;;;5015221;28;20477;-84
2021/09/21 10:36:59;;;;;;;7.57;5.13;;;21.10;99.90;;;;;;5015306;28;20025;-85
2021/09/21 10:39:24;;;;;;;11.50;5.28;;;20.50;99.90;;;;;;5015189;28;20032;-85
2021/09/21 10:42:01;;;;;;;8.07;5.78;;;19.40;99.90;;;;;;5015506;28;20116;-84
2021/09/21 10:44:27;;;;;;;16.42;4.93;;;19.10;99.90;;;;;;5015180;28;20060;-86
2021/09/21 10:46:57;;;;;;;7.70;4.90;;;20.00;99.90;;;;;;5015023;28;20030;-87
2021/09/21 10:49:29;;;;;;;10.80;5.05;;;20.50;99.90;;;;;;5015423;28;20043;-86
2021/09/21 10:51:58;;;;;;;7.40;4.47;;;21.30;99.90;;;;;;5015234;28;20053;-86
2021/09/21 10:54:38;;;;;;;8.57;5.53;;;21.90;99.90;;;;;;5015112;28;20025;-86
2021/09/21 10:57:12;;;;;;;9.40;4.22;;;22.20;99.90;;;;;;5034215;28;20041;-86
2021/09/21 10:59:57;;;;;;;8.23;5.47;;;21.70;99.90;;;;;;5035229;28;20029;-87
2021/09/21 11:02:28;;;;;;;6.90;4.57;;;21.20;99.80;;;;;;5035216;28;20029;-87
2021/09/21 11:04:53;;;;;;;5.85;4.80;;;21.10;99.90;;;;;;5035247;28;20025;-88
2021/09/21 11:07:19;;;;;;;5.80;3.78;;;21.10;99.90;;;;;;5036556;28;20032;-87
2021/09/21 11:09:51;;;;;;;6.82;4.50;;;20.90;99.90;;;;;;5037365;28;20045;-87
2021/09/21 11:12:19;;;;;;;8.23;4.57;;;20.70;99.90;;;;;;5035193;28;20112;-87
2021/09/21 11:14:47;;;;;;;5.63;3.88;;;20.50;99.90;;;;;;5035407;28;20442;-87
2021/09/21 11:17:12;;;;;;;6.38;4.07;;;20.50;99.90;;;;;;5036221;28;20025;-86
2021/09/21 11:19:41;;;;;;;6.03;4.30;;;20.60;99.90;;;;;;5035596;28;20033;-87
2021/09/21 11:22:10;;;;;;;8.13;4.88;;;20.10;99.90;;;;;;5034824;28;20021;-87
2021/09/21 11:24:38;;;;;;;7.30;4.93;;;19.80;99.90;;;;;;5036036;28;20025;-87
2021/09/21 11:27:09;;;;;;;10.50;5.30;;;19.70;99.90;;;;;;5036055;28;20025;-87
2021/09/21 11:29:39;;;;;;;6.53;4.28;;;19.80;99.90;;;;;;5036425;28;20489;-87
2021/09/21 11:32:19;;;;;;;10.38;5.50;;;19.60;99.90;;;;;;5034816;28;20025;-87
2021/09/21 11:34:46;;;;;;;10.43;4.78;;;19.50;99.90;;;;;;5034600;28;20060;-86
2021/09/21 11:37:13;;;;;;;6.43;4.50;;;19.50;99.90;;;;;;5034526;28;20026;-87
2021/09/21 11:39:39;;;;;;;5.82;4.63;;;19.30;99.90;;;;;;5034516;28;20116;-86
2021/09/21 11:42:05;;;;;;;8.45;4.40;;;19.00;99.90;;;;;;5035895;28;20558;-86
2021/09/21 11:44:39;;;;;;;6.03;4.38;;;19.10;99.90;;;;;;5035036;28;20123;-88
2021/09/21 11:47:05;;;;;;;6.03;4.13;;;18.80;99.90;;;;;;5036094;28;20029;-87
2021/09/21 11:49:31;;;;;;;5.43;4.40;;;18.90;99.90;;;;;;5037366;28;20272;-87
2021/09/21 11:51:57;;;;;;;6.45;4.70;;;18.90;99.90;;;;;;5045364;28;20021;-87
2021/09/21 11:54:23;;;;;;;5.72;4.50;;;18.70;99.90;;;;;;5042134;28;20064;-86
2021/09/21 11:56:48;;;;;;;7.57;4.97;;;18.60;99.90;;;;;;5019480;28;20049;-88
2021/09/21 11:59:17;;;;;;;7.78;4.80;;;18.70;99.90;;;;;;5018629;28;20119;-87
2021/09/21 12:01:53;;;;;;;5.43;4.20;;;18.80;99.90;;;;;;5035478;28;20365;-87
2021/09/21 12:04:19;;;;;;;7.15;4.50;;;18.80;99.90;;;;;;5017585;28;20026;-87
2021/09/21 12:06:45;;;;;;;9.80;4.95;;;18.80;99.90;;;;;;5016979;28;20026;-87
2021/09/21 12:09:12;;;;;;;6.07;4.50;;;18.80;99.90;;;;;;5017660;28;20030;-87
2021/09/21 12:11:45;;;;;;;6.65;4.57;;;18.60;99.90;;;;;;5035218;28;20440;-87
2021/09/21 12:14:11;;;;;;;6.32;4.60;;;18.80;99.90;;;;;;5017490;28;20026;-87
2021/09/21 12:16:36;;;;;;;5.72;4.43;;;19.10;99.90;;;;;;5017354;28;20026;-87
2021/09/21 12:19:13;;;;;;;5.25;4.20;;;19.00;99.90;;;;;;5017222;28;20385;-87
2021/09/21 12:21:42;;;;;;;7.97;4.63;;;19.00;99.90;;;;;;5017271;28;20026;-87
2021/09/21 12:24:07;;;;;;;4.82;4.28;;;19.00;99.90;;;;;;5017996;28;20130;-87
2021/09/21 12:26:33;;;;;;;6.40;4.10;;;19.10;99.90;;;;;;5017140;28;20088;-87
2021/09/21 12:29:00;;;;;;;5.38;4.78;;;19.10;99.90;;;;;;5017189;28;20025;-87
2021/09/21 12:31:31;;;;;;;7.30;5.05;;;19.00;99.90;;;;;;5017078;28;20030;-87
2021/09/21 12:34:05;;;;;;;7.25;4.07;;;19.10;99.90;;;;;;5017042;28;20021;-87
2021/09/21 12:36:41;;;;;;;4.93;4.13;;;19.10;99.90;;;;;;5017200;28;20022;-87
2021/09/21 12:39:13;;;;;;;10.68;4.95;;;19.50;99.90;;;;;;5034708;28;20025;-87
2021/09/21 12:41:42;;;;;;;5.20;4.05;;;20.20;99.90;;;;;;5016990;28;20481;-88
2021/09/21 12:44:13;;;;;;;6.53;4.40;;;21.20;99.90;;;;;;5016863;28;20560;-86
2021/09/21 12:46:42;;;;;;;7.35;4.28;;;21.50;99.90;;;;;;5016876;28;20022;-87
2021/09/21 12:49:14;;;;;;;7.25;4.60;;;21.40;99.90;;;;;;5016888;28;20068;-88
2021/09/21 12:51:43;;;;;;;6.45;4.53;;;21.70;99.50;;;;;;5018157;28;20120;-88
2021/09/21 12:54:14;;;;;;;10.75;5.63;;;21.30;98.70;;;;;;5016758;28;20068;-88
2021/09/21 12:56:42;;;;;;;6.05;4.43;;;20.90;98.60;;;;;;5048281;28;20059;-88
2021/09/21 12:59:12;;;;;;;9.82;5.20;;;20.90;98.90;;;;;;5055151;28;20033;-86